Time;durP1;ratioP1;P1;durP2;ratioP2;P2;SDS_P1;SDS_P2;PMS_P1;PMS_P2;Temp;Humidity;BMP_temperature;BMP_pressure;BME280_temperature;BME280_humidity;BME280_pressure;Samples;Min_cycle;Max_cycle;Signal;HPM_P1;HPM_P2
2022/04/03 00:00:26;;;;;;;12.80;6.50;;;;;;;-1.57;80.62;97926.66;432844;1270;113170;-41
2022/04/03 00:10:48;;;;;;;13.70;6.40;;;;;;;-1.70;80.92;97930.02;432891;1270;109546;-40
2022/04/03 00:20:55;;;;;;;9.20;4.60;;;;;;;-1.70;80.50;97935.42;432671;1270;99265;-40
2022/04/03 00:31:02;;;;;;;14.30;4.90;;;;;;;-1.69;80.72;97932.57;432537;1270;112485;-42
2022/04/03 00:41:10;;;;;;;17.10;7.10;;;;;;;-1.76;80.41;97938.53;432954;1271;107799;-39
2022/04/03 01:01:24;;;;;;;9.50;5.30;;;;;;;-1.98;80.35;97956.13;432758;1270;112385;-39
2022/04/03 01:11:32;;;;;;;13.30;5.10;;;;;;;-2.04;80.49;97959.59;433285;1261;108690;-40
2022/04/03 01:21:39;;;;;;;13.00;5.90;;;;;;;-2.11;80.31;97962.08;432502;1271;98890;-39
2022/04/03 01:31:47;;;;;;;14.30;6.30;;;;;;;-2.28;80.39;97958.64;432527;1271;109413;-40
2022/04/03 01:41:55;;;;;;;13.00;4.90;;;;;;;-2.41;80.45;97963.52;432593;1271;99285;-40
2022/04/03 01:52:02;;;;;;;10.70;4.90;;;;;;;-2.43;80.47;97972.52;432295;1271;112983;-40
2022/04/03 02:02:11;;;;;;;13.50;6.00;;;;;;;-2.54;80.66;97983.20;432480;1271;108772;-40
2022/04/03 02:12:19;;;;;;;6.40;3.40;;;;;;;-2.73;80.61;97994.15;432349;1271;99244;-39
2022/04/03 02:22:26;;;;;;;9.60;3.90;;;;;;;-2.77;80.50;97994.67;432399;1271;112926;-41
2022/04/03 02:32:33;;;;;;;7.80;4.60;;;;;;;-2.81;80.50;98006.29;432585;1271;108499;-43
2022/04/03 02:42:41;;;;;;;12.20;6.20;;;;;;;-2.89;80.79;98007.42;432727;1271;99291;-39
2022/04/03 02:52:49;;;;;;;12.80;6.90;;;;;;;-3.00;80.93;98009.67;432542;1271;111137;-39
2022/04/03 03:02:56;;;;;;;6.10;3.60;;;;;;;-3.04;80.75;98013.36;432525;1271;108790;-40
2022/04/03 03:13:04;;;;;;;10.20;4.70;;;;;;;-3.06;80.92;98022.35;432615;1271;99269;-40
2022/04/03 03:23:11;;;;;;;10.50;4.50;;;;;;;-3.11;81.03;98030.94;432329;1271;111504;-40
2022/04/03 03:33:18;;;;;;;12.00;4.40;;;;;;;-3.23;81.10;98031.48;432825;1271;108841;-40
2022/04/03 03:43:26;;;;;;;10.80;4.30;;;;;;;-3.30;81.12;98041.89;432516;1271;99401;-40
2022/04/03 03:53:33;;;;;;;11.20;5.20;;;;;;;-3.31;81.19;98049.70;432392;1271;112681;-43
2022/04/03 04:03:40;;;;;;;15.40;4.30;;;;;;;-3.30;81.20;98058.55;432392;1271;108848;-40
2022/04/03 04:13:47;;;;;;;12.60;4.80;;;;;;;-3.31;81.41;98068.38;432519;1270;99257;-39
2022/04/03 04:23:54;;;;;;;11.30;3.90;;;;;;;-3.41;81.32;98085.05;432786;1270;111378;-39
2022/04/03 04:34:03;;;;;;;13.40;4.90;;;;;;;-3.37;81.42;98095.63;432498;1270;109182;-41
2022/04/03 04:44:09;;;;;;;6.90;4.00;;;;;;;-3.28;81.46;98108.21;432516;1270;101539;-39
2022/04/03 04:54:16;;;;;;;15.60;7.70;;;;;;;-3.25;81.36;98121.61;432602;1270;107798;-40
2022/04/03 05:14:31;;;;;;;11.60;5.00;;;;;;;-3.08;81.35;98142.05;432474;1271;111173;-41
2022/04/03 05:24:38;;;;;;;10.50;5.80;;;;;;;-2.85;81.19;98148.15;432473;1271;108955;-40
2022/04/03 05:34:45;;;;;;;20.80;8.70;;;;;;;-2.63;81.15;98161.41;432542;1273;99270;-39
2022/04/03 05:44:52;;;;;;;19.00;7.20;;;;;;;-2.43;81.00;98174.86;432372;1273;112382;-41
2022/04/03 05:54:59;;;;;;;13.50;5.30;;;;;;;-2.09;80.77;98183.88;432575;1273;109421;-40
2022/04/03 06:05:04;;;;;;;16.30;5.30;;;;;;;-1.78;80.41;98196.35;432528;1271;99273;-39
2022/04/03 06:15:14;;;;;;;18.80;7.10;;;;;;;-1.68;79.65;98208.59;432585;1271;112086;-40
2022/04/03 06:25:22;;;;;;;18.00;7.00;;;;;;;-1.43;79.72;98219.34;432400;1272;109401;-42
2022/04/03 06:35:29;;;;;;;10.30;5.10;;;;;;;-1.13;79.06;98228.09;432336;1271;99411;-40
2022/04/03 06:45:36;;;;;;;12.20;6.40;;;;;;;-0.85;78.58;98237.33;432461;1271;108895;-40
2022/04/03 06:55:45;;;;;;;9.50;6.60;;;;;;;-0.22;78.67;98247.79;432498;1271;99290;-40
2022/04/03 07:05:52;;;;;;;12.70;7.60;;;;;;;0.21;77.52;98255.55;432527;1271;112476;-40
2022/04/03 07:16:00;;;;;;;15.40;7.00;;;;;;;0.48;76.34;98264.06;432333;1271;108954;-39
2022/04/03 07:26:07;;;;;;;15.00;7.20;;;;;;;0.89;76.08;98271.52;432627;1271;99257;-40
2022/04/03 07:36:16;;;;;;;12.70;7.70;;;;;;;1.20;75.28;98285.36;432687;1271;112468;-42
2022/04/03 07:46:23;;;;;;;15.10;8.40;;;;;;;1.44;74.09;98294.81;432493;1271;107788;-41
2022/04/03 08:06:37;;;;;;;16.60;9.00;;;;;;;1.93;72.21;98310.48;432548;1273;112420;-39
2022/04/03 08:16:44;;;;;;;18.60;9.60;;;;;;;2.09;70.58;98317.38;432512;1273;108775;-41
2022/04/03 08:26:52;;;;;;;17.70;8.80;;;;;;;2.50;69.50;98319.23;432453;1271;99289;-40
2022/04/03 08:36:59;;;;;;;17.30;8.60;;;;;;;2.99;69.37;98324.88;432543;1271;112581;-41
2022/04/03 08:47:07;;;;;;;14.00;7.50;;;;;;;2.99;67.16;98332.22;432359;1271;108839;-40
2022/04/03 08:57:13;;;;;;;18.40;7.40;;;;;;;2.95;67.39;98346.97;432519;1271;97977;-42
2022/04/03 09:07:21;;;;;;;11.80;7.80;;;;;;;3.15;65.80;98357.42;430099;1271;3390093;-40
2022/04/03 09:27:54;;;;;;;13.70;7.20;;;;;;;2.64;64.35;98378.16;432474;1271;99238;-42
2022/04/03 09:38:09;;;;;;;12.80;7.50;;;;;;;2.53;64.08;98389.38;432595;1271;112118;-40
2022/04/03 09:48:23;;;;;;;12.00;6.70;;;;;;;2.26;63.69;98394.14;432479;1273;107783;-42
2022/04/03 09:58:30;;;;;;;34.10;12.40;;;;;;;1.68;63.60;98409.41;432472;1271;99362;-41
2022/04/03 10:08:38;;;;;;;15.60;7.60;;;;;;;1.71;64.40;98409.54;432504;1271;99264;-40
2022/04/03 10:18:46;;;;;;;11.50;7.50;;;;;;;1.98;64.56;98415.94;432567;1273;111573;-42
2022/04/03 10:28:58;;;;;;;8.80;6.00;;;;;;;2.24;64.04;98412.80;432536;1273;108854;-42
2022/04/03 10:39:06;;;;;;;39.20;18.10;;;;;;;2.32;64.00;98412.77;432612;1273;99526;-40
2022/04/03 10:49:16;;;;;;;17.90;11.60;;;;;;;1.63;63.18;98422.35;432535;1271;99324;-40
2022/04/03 10:59:26;;;;;;;16.80;9.00;;;;;;;1.30;63.08;98421.98;432553;1271;112700;-41
2022/04/03 11:09:47;;;;;;;11.90;7.70;;;;;;;1.58;63.62;98422.87;432733;1271;108856;-40
2022/04/03 11:30:10;;;;;;;10.90;6.70;;;;;;;1.35;63.21;98436.72;432556;1271;99286;-43
2022/04/03 11:40:18;;;;;;;19.60;8.30;;;;;;;1.54;62.64;98430.98;432446;1273;112505;-40
2022/04/03 11:50:25;;;;;;;15.40;7.90;;;;;;;2.25;62.01;98425.36;432412;1273;107269;-41
2022/04/03 12:00:33;;;;;;;13.50;7.30;;;;;;;2.38;59.73;98425.93;432512;1271;99408;-42
2022/04/03 12:20:51;;;;;;;19.70;10.90;;;;;;;2.11;60.71;98430.27;432602;1271;107843;-40
2022/04/03 12:41:08;;;;;;;26.20;12.80;;;;;;;2.17;59.54;98424.27;432435;1271;112173;-44
2022/04/03 12:51:15;;;;;;;21.10;12.20;;;;;;;2.27;59.41;98420.98;432606;1273;108919;-40
2022/04/03 13:01:28;;;;;;;18.60;9.80;;;;;;;2.28;59.32;98421.30;432271;1273;99311;-42
2022/04/03 13:11:34;;;;;;;13.80;7.80;;;;;;;1.96;58.48;98418.58;432508;1273;99642;-40
2022/04/03 13:21:42;;;;;;;16.60;8.50;;;;;;;2.19;59.33;98409.27;432442;1273;112533;-40
2022/04/03 13:31:49;;;;;;;12.30;6.30;;;;;;;2.16;59.07;98409.44;432459;1273;109460;-41
2022/04/03 13:41:55;;;;;;;18.30;8.70;;;;;;;2.00;58.87;98408.20;432418;1273;98043;-41
2022/04/03 13:52:01;;;;;;;13.50;6.90;;;;;;;2.19;59.06;98406.70;432660;1273;112850;-40
2022/04/03 14:02:07;;;;;;;7.20;5.30;;;;;;;2.26;59.17;98405.70;432595;1273;109035;-42
2022/04/03 14:12:14;;;;;;;16.80;10.10;;;;;;;2.05;58.88;98404.35;432576;1271;99279;-40
2022/04/03 14:22:22;;;;;;;37.70;15.10;;;;;;;2.06;59.30;98405.77;432217;1271;112552;-40
2022/04/03 14:32:29;;;;;;;14.20;8.80;;;;;;;2.05;59.30;98408.25;432398;1273;108864;-39
2022/04/03 14:42:36;;;;;;;29.90;13.80;;;;;;;1.87;59.18;98417.08;432500;1271;99267;-41
2022/04/03 14:52:52;;;;;;;16.70;9.10;;;;;;;1.87;59.27;98415.78;432463;1271;112193;-40
2022/04/03 15:02:58;;;;;;;14.40;7.80;;;;;;;1.85;59.11;98417.47;432628;1271;108387;-40
2022/04/03 15:13:05;;;;;;;45.40;21.00;;;;;;;1.75;59.61;98416.90;432680;1271;98854;-42
2022/04/03 15:23:13;;;;;;;75.40;27.60;;;;;;;1.72;59.86;98415.50;432291;1273;112337;-39
2022/04/03 15:33:20;;;;;;;20.40;10.20;;;;;;;1.79;60.26;98420.41;432429;1273;108852;-40
2022/04/03 15:43:26;;;;;;;21.80;10.50;;;;;;;1.81;60.81;98421.76;432430;1271;98819;-40
2022/04/03 15:53:34;;;;;;;21.80;9.50;;;;;;;1.73;59.90;98423.21;432684;1271;112643;-42
2022/04/03 16:03:41;;;;;;;15.30;7.90;;;;;;;1.60;59.84;98429.05;432421;1271;108871;-43
2022/04/03 16:13:48;;;;;;;10.50;6.00;;;;;;;1.47;59.99;98438.20;432582;1271;99286;-40
2022/04/03 16:23:54;;;;;;;54.70;22.70;;;;;;;1.37;60.38;98439.88;432536;1271;112464;-39
2022/04/03 16:34:03;;;;;;;17.30;7.40;;;;;;;1.31;60.78;98450.00;432526;1271;108775;-41
2022/04/03 16:44:08;;;;;;;;;;;;;;;1.21;61.17;98456.50;432661;1271;99356;-41
2022/04/03 16:54:15;;;;;;;45.80;17.20;;;;;;;1.10;61.40;98462.25;432576;1271;98136;-42
2022/04/03 17:04:22;;;;;;;20.20;9.60;;;;;;;0.96;61.55;98471.66;432339;1271;108457;-42
2022/04/03 17:14:29;;;;;;;29.50;14.30;;;;;;;0.84;61.81;98476.16;432413;1274;99312;-40
2022/04/03 17:24:35;;;;;;;38.40;19.90;;;;;;;0.75;62.15;98487.89;432506;1271;112694;-41
2022/04/03 17:34:44;;;;;;;37.80;22.40;;;;;;;0.63;62.31;98490.89;432639;1271;109328;-42
2022/04/03 17:44:51;;;;;;;27.90;14.50;;;;;;;0.49;62.47;98493.76;432309;1274;99284;-39
2022/04/03 17:54:57;;;;;;;37.30;19.60;;;;;;;0.40;62.50;98502.62;432286;1271;112324;-40
2022/04/03 18:05:06;;;;;;;26.00;12.90;;;;;;;0.33;62.61;98515.80;432346;1271;108925;-44
2022/04/03 18:15:14;;;;;;;44.50;20.10;;;;;;;0.26;62.87;98525.95;432603;1273;98381;-42
2022/04/03 18:25:20;;;;;;;25.40;11.40;;;;;;;0.20;62.70;98529.34;432693;1271;108897;-41
2022/04/03 18:35:25;;;;;;;40.20;15.10;;;;;;;0.13;63.25;98533.94;432601;1271;99391;-41
2022/04/03 18:45:33;;;;;;;31.00;12.10;;;;;;;0.09;63.41;98544.05;432545;1271;111396;-41
2022/04/03 18:55:42;;;;;;;33.10;12.50;;;;;;;0.05;63.43;98548.30;432568;1271;108772;-42
2022/04/03 19:05:49;;;;;;;26.50;10.70;;;;;;;-0.04;63.58;98551.92;432651;1271;99307;-41
2022/04/03 19:26:02;;;;;;;189.10;63.30;;;;;;;-0.17;63.70;98557.38;432662;1271;108821;-42
2022/04/03 19:36:10;;;;;;;46.00;20.30;;;;;;;-0.18;63.79;98561.37;432535;1273;99285;-40
2022/04/03 19:46:16;;;;;;;35.30;15.80;;;;;;;-0.20;64.16;98562.05;432476;1271;111484;-41
2022/04/03 20:06:31;;;;;;;42.20;18.00;;;;;;;-0.23;64.30;98557.66;432569;1273;99298;-41
2022/04/03 20:16:38;;;;;;;14.60;7.50;;;;;;;-0.16;64.34;98566.02;432481;1271;112543;-41
2022/04/03 20:26:45;;;;;;;13.10;5.50;;;;;;;-0.03;64.70;98571.16;432394;1271;108740;-44
2022/04/03 20:36:51;;;;;;;10.50;4.80;;;;;;;0.05;64.64;98574.35;432543;1271;98900;-41
2022/04/03 20:46:59;;;;;;;14.60;6.50;;;;;;;-0.07;64.46;98578.27;432407;1271;112966;-41
2022/04/03 20:57:04;;;;;;;18.00;8.40;;;;;;;-0.18;64.55;98576.21;432485;1273;108868;-42
2022/04/03 21:07:11;;;;;;;15.00;8.30;;;;;;;-0.26;64.47;98582.85;428736;1271;5399006;-41
2022/04/03 21:17:18;;;;;;;23.90;9.70;;;;;;;-0.34;64.60;98576.36;432564;1271;108799;-42
2022/04/03 21:27:24;;;;;;;23.30;10.30;;;;;;;-0.35;64.72;98575.91;432563;1271;99267;-42
2022/04/03 21:37:31;;;;;;;25.70;10.90;;;;;;;-0.38;64.81;98578.02;432535;1273;111420;-42
2022/04/03 21:47:40;;;;;;;25.30;11.00;;;;;;;-0.45;65.00;98576.14;432410;1273;108876;-41
2022/04/03 21:57:48;;;;;;;29.20;14.40;;;;;;;-0.49;65.19;98579.30;432151;1273;99318;-41
2022/04/03 22:07:55;;;;;;;19.50;10.60;;;;;;;-0.54;65.22;98583.98;432510;1273;112535;-42
2022/04/03 22:18:02;;;;;;;20.60;9.90;;;;;;;-0.59;65.56;98580.20;432525;1273;108798;-40
2022/04/03 22:28:08;;;;;;;19.40;8.60;;;;;;;-0.50;65.60;98579.42;432362;1271;99293;-41
2022/04/03 22:48:28;;;;;;;29.60;12.80;;;;;;;-0.43;65.93;98573.38;432319;1273;99282;-41
2022/04/03 23:08:42;;;;;;;29.80;14.10;;;;;;;-0.65;66.44;98569.03;432629;1271;107696;-40
2022/04/03 23:18:49;;;;;;;28.80;13.60;;;;;;;-0.82;66.53;98571.48;432628;1271;99284;-41
2022/04/03 23:28:56;;;;;;;31.30;14.10;;;;;;;-0.95;66.68;98567.70;432402;1272;112738;-41
2022/04/03 23:39:03;;;;;;;28.10;15.10;;;;;;;-1.06;67.06;98552.34;432246;1273;108896;-41
2022/04/03 23:49:10;;;;;;;32.50;15.20;;;;;;;-1.06;67.22;98548.44;432450;1271;99234;-41
2022/04/03 23:59:18;;;;;;;23.00;13.00;;;;;;;-0.99;67.49;98543.17;432328;1273;107822;-41
